sensor_id;sensor_type;location;lat;lon;timestamp;P1;durP1;ratioP1;P2;durP2;ratioP2
58091;SDS011;43896;48.178;11.578;2023-12-22T00:01:50;1.63;;;0.40;;
58091;SDS011;43896;48.178;11.578;2023-12-22T00:04:15;2.03;;;0.43;;
58091;SDS011;43896;48.178;11.578;2023-12-22T00:06:41;2.25;;;0.45;;
58091;SDS011;43896;48.178;11.578;2023-12-22T00:09:06;2.17;;;0.35;;
58091;SDS011;43896;48.178;11.578;2023-12-22T00:11:32;1.23;;;0.30;;
58091;SDS011;43896;48.178;11.578;2023-12-22T00:13:57;1.60;;;0.40;;
58091;SDS011;43896;48.178;11.578;2023-12-22T00:16:22;0.82;;;0.30;;
58091;SDS011;43896;48.178;11.578;2023-12-22T00:18:47;1.20;;;0.30;;
58091;SDS011;43896;48.178;11.578;2023-12-22T00:21:13;0.90;;;0.20;;
58091;SDS011;43896;48.178;11.578;2023-12-22T00:23:38;0.22;;;0.10;;
58091;SDS011;43896;48.178;11.578;2023-12-22T00:26:05;1.30;;;0.10;;
58091;SDS011;43896;48.178;11.578;2023-12-22T00:28:30;0.22;;;0.10;;
58091;SDS011;43896;48.178;11.578;2023-12-22T00:30:57;1.33;;;0.57;;
58091;SDS011;43896;48.178;11.578;2023-12-22T00:33:23;0.60;;;0.20;;
58091;SDS011;43896;48.178;11.578;2023-12-22T00:35:48;0.50;;;0.20;;
58091;SDS011;43896;48.178;11.578;2023-12-22T00:38:14;0.55;;;0.10;;
58091;SDS011;43896;48.178;11.578;2023-12-22T00:40:39;0.80;;;0.20;;
58091;SDS011;43896;48.178;11.578;2023-12-22T00:43:04;0.55;;;0.10;;
58091;SDS011;43896;48.178;11.578;2023-12-22T00:45:30;1.00;;;0.10;;
58091;SDS011;43896;48.178;11.578;2023-12-22T00:47:55;0.50;;;0.20;;
58091;SDS011;43896;48.178;11.578;2023-12-22T00:50:20;1.50;;;0.20;;
58091;SDS011;43896;48.178;11.578;2023-12-22T00:52:46;0.50;;;0.10;;
58091;SDS011;43896;48.178;11.578;2023-12-22T00:55:11;0.28;;;0.17;;
58091;SDS011;43896;48.178;11.578;2023-12-22T00:57:36;0.30;;;0.17;;
58091;SDS011;43896;48.178;11.578;2023-12-22T01:00:02;0.65;;;0.20;;
58091;SDS011;43896;48.178;11.578;2023-12-22T01:02:29;0.68;;;0.20;;
58091;SDS011;43896;48.178;11.578;2023-12-22T01:04:55;0.90;;;0.20;;
58091;SDS011;43896;48.178;11.578;2023-12-22T01:07:20;1.17;;;0.20;;
58091;SDS011;43896;48.178;11.578;2023-12-22T01:09:45;0.88;;;0.20;;
58091;SDS011;43896;48.178;11.578;2023-12-22T01:12:11;0.93;;;0.15;;
58091;SDS011;43896;48.178;11.578;2023-12-22T01:14:36;1.00;;;0.15;;
58091;SDS011;43896;48.178;11.578;2023-12-22T01:17:02;0.65;;;0.10;;
58091;SDS011;43896;48.178;11.578;2023-12-22T01:19:27;0.60;;;0.20;;
58091;SDS011;43896;48.178;11.578;2023-12-22T01:21:53;1.10;;;0.20;;
58091;SDS011;43896;48.178;11.578;2023-12-22T01:24:18;1.15;;;0.20;;
58091;SDS011;43896;48.178;11.578;2023-12-22T01:26:43;1.15;;;0.30;;
58091;SDS011;43896;48.178;11.578;2023-12-22T01:29:09;2.40;;;0.20;;
58091;SDS011;43896;48.178;11.578;2023-12-22T01:31:34;1.20;;;0.20;;
58091;SDS011;43896;48.178;11.578;2023-12-22T01:33:59;1.17;;;0.20;;
58091;SDS011;43896;48.178;11.578;2023-12-22T01:36:25;2.47;;;0.20;;
58091;SDS011;43896;48.178;11.578;2023-12-22T01:38:50;0.57;;;0.20;;
58091;SDS011;43896;48.178;11.578;2023-12-22T01:41:16;0.75;;;0.20;;
58091;SDS011;43896;48.178;11.578;2023-12-22T01:43:41;1.15;;;0.20;;
58091;SDS011;43896;48.178;11.578;2023-12-22T01:46:06;0.98;;;0.20;;
58091;SDS011;43896;48.178;11.578;2023-12-22T01:48:35;1.63;;;0.35;;
58091;SDS011;43896;48.178;11.578;2023-12-22T01:51:01;0.82;;;0.20;;
58091;SDS011;43896;48.178;11.578;2023-12-22T01:53:28;0.70;;;0.38;;
58091;SDS011;43896;48.178;11.578;2023-12-22T01:55:55;1.98;;;0.50;;
58091;SDS011;43896;48.178;11.578;2023-12-22T01:58:24;0.70;;;0.30;;
58091;SDS011;43896;48.178;11.578;2023-12-22T02:00:52;1.13;;;0.30;;
58091;SDS011;43896;48.178;11.578;2023-12-22T02:03:18;0.57;;;0.20;;
58091;SDS011;43896;48.178;11.578;2023-12-22T02:05:44;0.77;;;0.20;;
58091;SDS011;43896;48.178;11.578;2023-12-22T02:08:10;0.43;;;0.20;;
58091;SDS011;43896;48.178;11.578;2023-12-22T02:10:36;1.02;;;0.30;;
58091;SDS011;43896;48.178;11.578;2023-12-22T02:13:02;0.47;;;0.20;;
58091;SDS011;43896;48.178;11.578;2023-12-22T02:15:29;1.00;;;0.22;;
58091;SDS011;43896;48.178;11.578;2023-12-22T02:17:55;0.68;;;0.20;;
58091;SDS011;43896;48.178;11.578;2023-12-22T02:20:35;0.95;;;0.40;;
58091;SDS011;43896;48.178;11.578;2023-12-22T02:23:01;0.77;;;0.30;;
58091;SDS011;43896;48.178;11.578;2023-12-22T02:25:27;0.88;;;0.30;;
58091;SDS011;43896;48.178;11.578;2023-12-22T02:27:57;0.55;;;0.20;;
58091;SDS011;43896;48.178;11.578;2023-12-22T02:33:18;1.20;;;0.20;;
58091;SDS011;43896;48.178;11.578;2023-12-22T02:35:44;0.63;;;0.20;;
58091;SDS011;43896;48.178;11.578;2023-12-22T02:38:13;0.43;;;0.20;;
58091;SDS011;43896;48.178;11.578;2023-12-22T02:40:40;0.60;;;0.20;;
58091;SDS011;43896;48.178;11.578;2023-12-22T02:43:07;1.05;;;0.30;;
58091;SDS011;43896;48.178;11.578;2023-12-22T02:45:33;1.23;;;0.40;;
58091;SDS011;43896;48.178;11.578;2023-12-22T02:47:59;0.60;;;0.25;;
58091;SDS011;43896;48.178;11.578;2023-12-22T02:50:25;0.90;;;0.30;;
58091;SDS011;43896;48.178;11.578;2023-12-22T02:52:50;0.90;;;0.30;;
58091;SDS011;43896;48.178;11.578;2023-12-22T02:55:15;0.40;;;0.30;;
58091;SDS011;43896;48.178;11.578;2023-12-22T02:57:41;1.30;;;0.30;;
58091;SDS011;43896;48.178;11.578;2023-12-22T03:00:06;1.38;;;0.35;;
58091;SDS011;43896;48.178;11.578;2023-12-22T03:02:32;1.15;;;0.38;;
58091;SDS011;43896;48.178;11.578;2023-12-22T03:04:57;0.50;;;0.30;;
58091;SDS011;43896;48.178;11.578;2023-12-22T03:07:23;0.47;;;0.30;;
58091;SDS011;43896;48.178;11.578;2023-12-22T03:09:48;0.60;;;0.30;;
58091;SDS011;43896;48.178;11.578;2023-12-22T03:12:13;0.40;;;0.30;;
58091;SDS011;43896;48.178;11.578;2023-12-22T03:14:39;0.93;;;0.40;;
58091;SDS011;43896;48.178;11.578;2023-12-22T03:17:05;1.85;;;0.40;;
58091;SDS011;43896;48.178;11.578;2023-12-22T03:19:32;0.40;;;0.20;;
58091;SDS011;43896;48.178;11.578;2023-12-22T03:21:58;0.95;;;0.30;;
58091;SDS011;43896;48.178;11.578;2023-12-22T03:24:23;0.50;;;0.30;;
58091;SDS011;43896;48.178;11.578;2023-12-22T03:26:50;1.30;;;0.45;;
58091;SDS011;43896;48.178;11.578;2023-12-22T03:29:16;0.95;;;0.20;;
58091;SDS011;43896;48.178;11.578;2023-12-22T03:31:42;0.68;;;0.30;;
58091;SDS011;43896;48.178;11.578;2023-12-22T03:34:07;1.05;;;0.30;;
58091;SDS011;43896;48.178;11.578;2023-12-22T03:36:33;0.50;;;0.20;;
58091;SDS011;43896;48.178;11.578;2023-12-22T03:38:58;0.50;;;0.20;;
58091;SDS011;43896;48.178;11.578;2023-12-22T03:41:23;0.30;;;0.15;;
58091;SDS011;43896;48.178;11.578;2023-12-22T03:43:49;1.13;;;0.22;;
58091;SDS011;43896;48.178;11.578;2023-12-22T03:46:14;1.30;;;0.40;;
58091;SDS011;43896;48.178;11.578;2023-12-22T03:48:40;1.13;;;0.30;;
58091;SDS011;43896;48.178;11.578;2023-12-22T03:51:05;0.80;;;0.30;;
58091;SDS011;43896;48.178;11.578;2023-12-22T03:53:31;0.98;;;0.30;;
58091;SDS011;43896;48.178;11.578;2023-12-22T03:55:56;0.70;;;0.20;;
58091;SDS011;43896;48.178;11.578;2023-12-22T03:58:21;0.88;;;0.20;;
58091;SDS011;43896;48.178;11.578;2023-12-22T04:00:47;0.55;;;0.20;;
58091;SDS011;43896;48.178;11.578;2023-12-22T04:03:13;0.55;;;0.15;;
58091;SDS011;43896;48.178;11.578;2023-12-22T04:05:38;0.95;;;0.10;;
58091;SDS011;43896;48.178;11.578;2023-12-22T04:08:04;0.22;;;0.10;;
58091;SDS011;43896;48.178;11.578;2023-12-22T04:10:30;0.63;;;0.20;;
58091;SDS011;43896;48.178;11.578;2023-12-22T04:12:55;0.38;;;0.20;;
58091;SDS011;43896;48.178;11.578;2023-12-22T04:15:20;0.90;;;0.20;;
58091;SDS011;43896;48.178;11.578;2023-12-22T04:17:46;0.25;;;0.20;;
58091;SDS011;43896;48.178;11.578;2023-12-22T04:20:11;0.73;;;0.20;;
58091;SDS011;43896;48.178;11.578;2023-12-22T04:22:38;2.20;;;0.40;;
58091;SDS011;43896;48.178;11.578;2023-12-22T04:25:03;1.15;;;0.40;;
58091;SDS011;43896;48.178;11.578;2023-12-22T04:27:30;1.13;;;0.35;;
58091;SDS011;43896;48.178;11.578;2023-12-22T04:29:56;2.00;;;0.40;;
58091;SDS011;43896;48.178;11.578;2023-12-22T04:32:21;3.63;;;0.45;;
58091;SDS011;43896;48.178;11.578;2023-12-22T04:34:46;1.70;;;0.45;;
58091;SDS011;43896;48.178;11.578;2023-12-22T04:37:12;0.70;;;0.30;;
58091;SDS011;43896;48.178;11.578;2023-12-22T04:39:37;2.47;;;0.40;;
58091;SDS011;43896;48.178;11.578;2023-12-22T04:42:02;1.00;;;0.30;;
58091;SDS011;43896;48.178;11.578;2023-12-22T04:44:28;1.65;;;0.40;;
58091;SDS011;43896;48.178;11.578;2023-12-22T04:46:53;1.33;;;0.30;;
58091;SDS011;43896;48.178;11.578;2023-12-22T04:49:19;1.35;;;0.30;;
58091;SDS011;43896;48.178;11.578;2023-12-22T04:51:44;1.40;;;0.40;;
58091;SDS011;43896;48.178;11.578;2023-12-22T04:54:09;1.75;;;0.40;;
58091;SDS011;43896;48.178;11.578;2023-12-22T04:56:35;1.67;;;0.50;;
58091;SDS011;43896;48.178;11.578;2023-12-22T04:59:00;0.65;;;0.20;;
58091;SDS011;43896;48.178;11.578;2023-12-22T05:01:25;0.77;;;0.20;;
58091;SDS011;43896;48.178;11.578;2023-12-22T05:03:51;2.75;;;0.30;;
58091;SDS011;43896;48.178;11.578;2023-12-22T05:06:16;1.92;;;0.40;;
58091;SDS011;43896;48.178;11.578;2023-12-22T05:08:42;1.55;;;0.50;;
58091;SDS011;43896;48.178;11.578;2023-12-22T05:11:07;0.93;;;0.30;;
58091;SDS011;43896;48.178;11.578;2023-12-22T05:13:32;2.88;;;0.65;;
58091;SDS011;43896;48.178;11.578;2023-12-22T05:15:58;2.50;;;0.40;;
58091;SDS011;43896;48.178;11.578;2023-12-22T05:18:25;3.10;;;0.60;;
58091;SDS011;43896;48.178;11.578;2023-12-22T05:20:50;2.13;;;0.45;;
58091;SDS011;43896;48.178;11.578;2023-12-22T05:23:17;2.17;;;0.47;;
58091;SDS011;43896;48.178;11.578;2023-12-22T05:25:43;2.75;;;0.40;;
58091;SDS011;43896;48.178;11.578;2023-12-22T05:28:08;3.08;;;0.60;;
58091;SDS011;43896;48.178;11.578;2023-12-22T05:30:34;2.00;;;0.40;;
58091;SDS011;43896;48.178;11.578;2023-12-22T05:32:59;2.88;;;0.40;;
58091;SDS011;43896;48.178;11.578;2023-12-22T05:35:24;1.35;;;0.43;;
58091;SDS011;43896;48.178;11.578;2023-12-22T05:37:50;2.05;;;0.40;;
58091;SDS011;43896;48.178;11.578;2023-12-22T05:40:15;2.38;;;0.40;;
58091;SDS011;43896;48.178;11.578;2023-12-22T05:42:41;4.45;;;0.60;;
58091;SDS011;43896;48.178;11.578;2023-12-22T05:45:07;1.67;;;0.50;;
58091;SDS011;43896;48.178;11.578;2023-12-22T05:47:32;2.97;;;0.50;;
58091;SDS011;43896;48.178;11.578;2023-12-22T05:49:58;1.20;;;0.40;;
58091;SDS011;43896;48.178;11.578;2023-12-22T05:52:23;2.45;;;0.50;;
58091;SDS011;43896;48.178;11.578;2023-12-22T05:54:49;2.15;;;0.50;;
58091;SDS011;43896;48.178;11.578;2023-12-22T05:57:14;3.00;;;0.80;;
58091;SDS011;43896;48.178;11.578;2023-12-22T05:59:39;4.60;;;1.02;;
58091;SDS011;43896;48.178;11.578;2023-12-22T06:02:05;3.38;;;0.60;;
58091;SDS011;43896;48.178;11.578;2023-12-22T06:04:30;4.22;;;0.80;;
58091;SDS011;43896;48.178;11.578;2023-12-22T06:06:56;2.13;;;0.50;;
58091;SDS011;43896;48.178;11.578;2023-12-22T06:09:21;2.78;;;0.77;;
58091;SDS011;43896;48.178;11.578;2023-12-22T06:11:47;2.00;;;0.50;;
58091;SDS011;43896;48.178;11.578;2023-12-22T06:14:13;1.95;;;0.40;;
58091;SDS011;43896;48.178;11.578;2023-12-22T06:16:38;1.92;;;0.30;;
58091;SDS011;43896;48.178;11.578;2023-12-22T06:19:04;1.20;;;0.40;;
58091;SDS011;43896;48.178;11.578;2023-12-22T06:21:30;1.15;;;0.32;;
58091;SDS011;43896;48.178;11.578;2023-12-22T06:23:55;1.95;;;0.40;;
58091;SDS011;43896;48.178;11.578;2023-12-22T06:26:20;0.98;;;0.30;;
58091;SDS011;43896;48.178;11.578;2023-12-22T06:28:51;2.25;;;0.40;;
58091;SDS011;43896;48.178;11.578;2023-12-22T06:31:17;1.52;;;0.30;;
58091;SDS011;43896;48.178;11.578;2023-12-22T06:33:45;2.20;;;0.38;;
58091;SDS011;43896;48.178;11.578;2023-12-22T06:36:21;0.90;;;0.40;;
58091;SDS011;43896;48.178;11.578;2023-12-22T06:38:47;1.92;;;0.38;;
58091;SDS011;43896;48.178;11.578;2023-12-22T06:41:19;0.90;;;0.30;;
58091;SDS011;43896;48.178;11.578;2023-12-22T06:43:45;1.83;;;0.30;;
58091;SDS011;43896;48.178;11.578;2023-12-22T06:46:28;1.13;;;0.30;;
58091;SDS011;43896;48.178;11.578;2023-12-22T06:48:55;1.75;;;0.40;;
58091;SDS011;43896;48.178;11.578;2023-12-22T06:51:22;2.10;;;0.40;;
58091;SDS011;43896;48.178;11.578;2023-12-22T06:53:52;2.97;;;0.60;;
58091;SDS011;43896;48.178;11.578;2023-12-22T06:56:21;2.80;;;0.60;;
58091;SDS011;43896;48.178;11.578;2023-12-22T06:58:51;2.65;;;0.60;;
58091;SDS011;43896;48.178;11.578;2023-12-22T07:01:18;3.47;;;0.60;;
58091;SDS011;43896;48.178;11.578;2023-12-22T07:03:45;3.72;;;0.90;;
58091;SDS011;43896;48.178;11.578;2023-12-22T07:06:17;3.30;;;0.90;;
58091;SDS011;43896;48.178;11.578;2023-12-22T07:11:36;2.95;;;0.80;;
58091;SDS011;43896;48.178;11.578;2023-12-22T07:14:02;3.08;;;0.60;;
58091;SDS011;43896;48.178;11.578;2023-12-22T07:16:27;3.45;;;0.88;;
58091;SDS011;43896;48.178;11.578;2023-12-22T07:18:53;2.22;;;0.40;;
58091;SDS011;43896;48.178;11.578;2023-12-22T07:21:18;2.20;;;0.40;;
58091;SDS011;43896;48.178;11.578;2023-12-22T07:23:43;2.22;;;0.40;;
58091;SDS011;43896;48.178;11.578;2023-12-22T07:26:09;2.63;;;0.45;;
58091;SDS011;43896;48.178;11.578;2023-12-22T07:28:35;2.25;;;0.60;;
58091;SDS011;43896;48.178;11.578;2023-12-22T07:31:00;5.60;;;0.80;;
58091;SDS011;43896;48.178;11.578;2023-12-22T07:33:25;2.13;;;0.60;;
58091;SDS011;43896;48.178;11.578;2023-12-22T07:35:50;3.88;;;0.57;;
58091;SDS011;43896;48.178;11.578;2023-12-22T07:38:16;3.80;;;0.82;;
58091;SDS011;43896;48.178;11.578;2023-12-22T07:40:41;3.85;;;0.70;;
58091;SDS011;43896;48.178;11.578;2023-12-22T07:43:06;5.97;;;0.98;;
58091;SDS011;43896;48.178;11.578;2023-12-22T07:45:33;4.63;;;0.90;;
58091;SDS011;43896;48.178;11.578;2023-12-22T07:47:59;4.25;;;0.52;;
58091;SDS011;43896;48.178;11.578;2023-12-22T07:50:24;3.65;;;0.60;;
58091;SDS011;43896;48.178;11.578;2023-12-22T07:52:49;5.65;;;0.70;;
58091;SDS011;43896;48.178;11.578;2023-12-22T07:55:15;3.58;;;0.80;;
58091;SDS011;43896;48.178;11.578;2023-12-22T07:57:40;5.30;;;1.00;;
58091;SDS011;43896;48.178;11.578;2023-12-22T08:00:06;2.83;;;0.50;;
58091;SDS011;43896;48.178;11.578;2023-12-22T08:02:34;2.47;;;0.52;;
58091;SDS011;43896;48.178;11.578;2023-12-22T08:04:59;1.65;;;0.55;;
58091;SDS011;43896;48.178;11.578;2023-12-22T08:07:24;3.22;;;0.40;;
58091;SDS011;43896;48.178;11.578;2023-12-22T08:09:50;1.52;;;0.40;;
58091;SDS011;43896;48.178;11.578;2023-12-22T08:12:15;0.93;;;0.40;;
58091;SDS011;43896;48.178;11.578;2023-12-22T08:14:40;1.55;;;0.40;;
58091;SDS011;43896;48.178;11.578;2023-12-22T08:17:06;4.00;;;0.60;;
58091;SDS011;43896;48.178;11.578;2023-12-22T08:19:31;1.88;;;0.38;;
58091;SDS011;43896;48.178;11.578;2023-12-22T08:21:56;2.28;;;0.88;;
58091;SDS011;43896;48.178;11.578;2023-12-22T08:24:22;1.38;;;0.40;;
58091;SDS011;43896;48.178;11.578;2023-12-22T08:26:47;1.85;;;0.73;;
58091;SDS011;43896;48.178;11.578;2023-12-22T08:29:13;2.65;;;0.75;;
58091;SDS011;43896;48.178;11.578;2023-12-22T08:31:39;4.35;;;0.95;;
58091;SDS011;43896;48.178;11.578;2023-12-22T08:34:04;3.72;;;0.77;;
58091;SDS011;43896;48.178;11.578;2023-12-22T08:36:30;4.35;;;0.90;;
58091;SDS011;43896;48.178;11.578;2023-12-22T08:38:56;3.65;;;0.63;;
58091;SDS011;43896;48.178;11.578;2023-12-22T08:41:21;3.50;;;0.80;;
58091;SDS011;43896;48.178;11.578;2023-12-22T08:43:47;2.95;;;0.75;;
58091;SDS011;43896;48.178;11.578;2023-12-22T08:46:12;3.75;;;0.73;;
58091;SDS011;43896;48.178;11.578;2023-12-22T08:48:38;4.07;;;0.80;;
58091;SDS011;43896;48.178;11.578;2023-12-22T08:51:03;4.22;;;0.65;;
58091;SDS011;43896;48.178;11.578;2023-12-22T08:53:29;4.47;;;0.63;;
58091;SDS011;43896;48.178;11.578;2023-12-22T08:55:58;5.15;;;0.50;;
58091;SDS011;43896;48.178;11.578;2023-12-22T08:58:26;3.58;;;0.65;;
58091;SDS011;43896;48.178;11.578;2023-12-22T09:00:51;3.97;;;0.60;;
58091;SDS011;43896;48.178;11.578;2023-12-22T09:03:16;2.72;;;0.60;;
58091;SDS011;43896;48.178;11.578;2023-12-22T09:05:42;7.07;;;0.80;;
58091;SDS011;43896;48.178;11.578;2023-12-22T09:08:07;3.28;;;0.70;;
58091;SDS011;43896;48.178;11.578;2023-12-22T09:10:32;2.17;;;0.70;;
58091;SDS011;43896;48.178;11.578;2023-12-22T09:12:58;5.22;;;0.82;;
58091;SDS011;43896;48.178;11.578;2023-12-22T09:15:23;3.70;;;0.80;;
58091;SDS011;43896;48.178;11.578;2023-12-22T09:17:49;2.78;;;0.88;;
58091;SDS011;43896;48.178;11.578;2023-12-22T09:20:17;5.75;;;0.70;;
58091;SDS011;43896;48.178;11.578;2023-12-22T09:22:42;5.32;;;0.75;;
58091;SDS011;43896;48.178;11.578;2023-12-22T09:25:07;3.45;;;0.70;;
58091;SDS011;43896;48.178;11.578;2023-12-22T09:27:33;6.00;;;1.85;;
58091;SDS011;43896;48.178;11.578;2023-12-22T09:29:59;2.97;;;0.80;;
58091;SDS011;43896;48.178;11.578;2023-12-22T09:32:24;4.07;;;0.70;;
58091;SDS011;43896;48.178;11.578;2023-12-22T09:34:50;4.22;;;1.00;;
58091;SDS011;43896;48.178;11.578;2023-12-22T09:37:15;2.45;;;0.75;;
58091;SDS011;43896;48.178;11.578;2023-12-22T09:39:40;3.45;;;1.10;;
58091;SDS011;43896;48.178;11.578;2023-12-22T09:42:06;4.07;;;1.08;;
58091;SDS011;43896;48.178;11.578;2023-12-22T09:44:32;4.82;;;0.63;;
58091;SDS011;43896;48.178;11.578;2023-12-22T09:47:01;3.15;;;0.70;;
58091;SDS011;43896;48.178;11.578;2023-12-22T09:49:29;5.00;;;0.75;;
58091;SDS011;43896;48.178;11.578;2023-12-22T09:51:55;3.35;;;0.98;;
58091;SDS011;43896;48.178;11.578;2023-12-22T09:54:22;3.28;;;0.70;;
58091;SDS011;43896;48.178;11.578;2023-12-22T09:56:48;2.95;;;0.60;;
58091;SDS011;43896;48.178;11.578;2023-12-22T09:59:15;2.90;;;0.40;;
58091;SDS011;43896;48.178;11.578;2023-12-22T10:01:43;2.58;;;0.50;;
58091;SDS011;43896;48.178;11.578;2023-12-22T10:04:10;2.65;;;0.55;;
58091;SDS011;43896;48.178;11.578;2023-12-22T10:06:37;2.70;;;0.50;;
58091;SDS011;43896;48.178;11.578;2023-12-22T10:09:02;1.52;;;0.40;;
58091;SDS011;43896;48.178;11.578;2023-12-22T10:11:31;0.98;;;0.40;;
58091;SDS011;43896;48.178;11.578;2023-12-22T10:13:57;2.90;;;0.50;;
58091;SDS011;43896;48.178;11.578;2023-12-22T10:16:25;2.58;;;0.47;;
58091;SDS011;43896;48.178;11.578;2023-12-22T10:18:51;1.88;;;0.30;;
58091;SDS011;43896;48.178;11.578;2023-12-22T10:21:16;1.35;;;0.45;;
58091;SDS011;43896;48.178;11.578;2023-12-22T10:23:42;2.45;;;0.40;;
58091;SDS011;43896;48.178;11.578;2023-12-22T10:26:10;1.38;;;0.40;;
58091;SDS011;43896;48.178;11.578;2023-12-22T10:28:36;3.10;;;0.30;;
58091;SDS011;43896;48.178;11.578;2023-12-22T10:31:02;1.05;;;0.30;;
58091;SDS011;43896;48.178;11.578;2023-12-22T10:33:31;2.13;;;0.80;;
58091;SDS011;43896;48.178;11.578;2023-12-22T10:35:58;1.27;;;0.30;;
58091;SDS011;43896;48.178;11.578;2023-12-22T10:38:24;1.33;;;0.40;;
58091;SDS011;43896;48.178;11.578;2023-12-22T10:40:50;1.05;;;0.25;;
58091;SDS011;43896;48.178;11.578;2023-12-22T10:43:15;1.38;;;0.30;;
58091;SDS011;43896;48.178;11.578;2023-12-22T10:45:41;1.67;;;0.30;;
58091;SDS011;43896;48.178;11.578;2023-12-22T10:48:07;1.85;;;0.40;;
58091;SDS011;43896;48.178;11.578;2023-12-22T10:50:32;1.33;;;0.43;;
58091;SDS011;43896;48.178;11.578;2023-12-22T10:52:57;1.67;;;0.52;;
58091;SDS011;43896;48.178;11.578;2023-12-22T10:55:23;1.55;;;0.50;;
58091;SDS011;43896;48.178;11.578;2023-12-22T10:57:49;1.50;;;0.40;;
58091;SDS011;43896;48.178;11.578;2023-12-22T11:00:15;4.15;;;0.60;;
58091;SDS011;43896;48.178;11.578;2023-12-22T11:02:44;1.70;;;0.50;;
58091;SDS011;43896;48.178;11.578;2023-12-22T11:05:15;2.40;;;0.60;;
58091;SDS011;43896;48.178;11.578;2023-12-22T11:07:45;3.05;;;1.02;;
58091;SDS011;43896;48.178;11.578;2023-12-22T11:10:14;2.60;;;0.60;;
58091;SDS011;43896;48.178;11.578;2023-12-22T11:12:44;3.05;;;0.80;;
58091;SDS011;43896;48.178;11.578;2023-12-22T11:15:12;1.77;;;0.57;;
58091;SDS011;43896;48.178;11.578;2023-12-22T11:17:40;3.05;;;0.65;;
58091;SDS011;43896;48.178;11.578;2023-12-22T11:20:10;5.15;;;0.70;;
58091;SDS011;43896;48.178;11.578;2023-12-22T11:22:38;3.53;;;0.50;;
58091;SDS011;43896;48.178;11.578;2023-12-22T11:25:04;3.10;;;0.50;;
58091;SDS011;43896;48.178;11.578;2023-12-22T11:27:33;2.67;;;0.50;;
58091;SDS011;43896;48.178;11.578;2023-12-22T11:29:58;3.25;;;0.55;;
58091;SDS011;43896;48.178;11.578;2023-12-22T11:32:26;2.40;;;0.63;;
58091;SDS011;43896;48.178;11.578;2023-12-22T11:34:54;3.53;;;0.57;;
58091;SDS011;43896;48.178;11.578;2023-12-22T11:37:21;2.50;;;0.60;;
58091;SDS011;43896;48.178;11.578;2023-12-22T11:39:47;2.33;;;0.65;;
58091;SDS011;43896;48.178;11.578;2023-12-22T11:42:17;2.40;;;0.60;;
58091;SDS011;43896;48.178;11.578;2023-12-22T11:44:46;1.80;;;0.55;;
58091;SDS011;43896;48.178;11.578;2023-12-22T11:47:12;2.00;;;0.57;;
58091;SDS011;43896;48.178;11.578;2023-12-22T11:49:39;2.92;;;0.60;;
58091;SDS011;43896;48.178;11.578;2023-12-22T11:52:14;2.92;;;0.65;;
58091;SDS011;43896;48.178;11.578;2023-12-22T11:54:47;2.42;;;0.60;;
58091;SDS011;43896;48.178;11.578;2023-12-22T11:59:52;2.42;;;0.55;;
58091;SDS011;43896;48.178;11.578;2023-12-22T12:02:17;2.17;;;0.50;;
58091;SDS011;43896;48.178;11.578;2023-12-22T12:04:43;3.65;;;0.70;;
58091;SDS011;43896;48.178;11.578;2023-12-22T12:10:01;2.15;;;0.60;;
58091;SDS011;43896;48.178;11.578;2023-12-22T12:12:27;4.07;;;0.80;;
58091;SDS011;43896;48.178;11.578;2023-12-22T12:14:52;3.90;;;0.65;;
58091;SDS011;43896;48.178;11.578;2023-12-22T12:17:23;2.30;;;0.73;;
58091;SDS011;43896;48.178;11.578;2023-12-22T12:19:48;3.08;;;0.60;;
58091;SDS011;43896;48.178;11.578;2023-12-22T12:22:14;2.17;;;0.60;;
58091;SDS011;43896;48.178;11.578;2023-12-22T12:24:40;4.88;;;0.52;;
58091;SDS011;43896;48.178;11.578;2023-12-22T12:27:06;2.85;;;0.50;;
58091;SDS011;43896;48.178;11.578;2023-12-22T12:29:32;1.35;;;0.40;;
58091;SDS011;43896;48.178;11.578;2023-12-22T12:32:05;2.58;;;0.50;;
58091;SDS011;43896;48.178;11.578;2023-12-22T12:34:31;2.10;;;0.60;;
58091;SDS011;43896;48.178;11.578;2023-12-22T12:36:56;2.55;;;0.60;;
58091;SDS011;43896;48.178;11.578;2023-12-22T12:39:22;2.80;;;0.63;;
58091;SDS011;43896;48.178;11.578;2023-12-22T12:41:54;3.30;;;0.57;;
58091;SDS011;43896;48.178;11.578;2023-12-22T12:44:21;2.92;;;0.60;;
58091;SDS011;43896;48.178;11.578;2023-12-22T12:46:49;2.03;;;0.50;;
58091;SDS011;43896;48.178;11.578;2023-12-22T12:49:14;2.92;;;1.08;;
58091;SDS011;43896;48.178;11.578;2023-12-22T12:51:43;2.47;;;0.68;;
58091;SDS011;43896;48.178;11.578;2023-12-22T12:54:10;2.83;;;0.65;;
58091;SDS011;43896;48.178;11.578;2023-12-22T12:56:45;3.42;;;0.60;;
58091;SDS011;43896;48.178;11.578;2023-12-22T12:59:15;2.50;;;0.70;;
58091;SDS011;43896;48.178;11.578;2023-12-22T13:01:46;2.90;;;0.70;;
58091;SDS011;43896;48.178;11.578;2023-12-22T13:04:14;2.22;;;0.80;;
58091;SDS011;43896;48.178;11.578;2023-12-22T13:06:46;3.85;;;0.70;;
58091;SDS011;43896;48.178;11.578;2023-12-22T13:09:12;1.52;;;0.45;;
58091;SDS011;43896;48.178;11.578;2023-12-22T13:11:40;3.35;;;0.63;;
58091;SDS011;43896;48.178;11.578;2023-12-22T13:14:07;2.15;;;0.40;;
58091;SDS011;43896;48.178;11.578;2023-12-22T13:16:34;2.55;;;0.55;;
58091;SDS011;43896;48.178;11.578;2023-12-22T13:19:00;2.58;;;0.50;;
58091;SDS011;43896;48.178;11.578;2023-12-22T13:21:27;3.05;;;0.70;;
58091;SDS011;43896;48.178;11.578;2023-12-22T13:24:09;1.73;;;0.47;;
58091;SDS011;43896;48.178;11.578;2023-12-22T13:26:36;1.58;;;0.45;;
58091;SDS011;43896;48.178;11.578;2023-12-22T13:29:02;2.95;;;0.65;;
58091;SDS011;43896;48.178;11.578;2023-12-22T13:31:27;2.13;;;0.77;;
58091;SDS011;43896;48.178;11.578;2023-12-22T13:33:56;4.03;;;0.60;;
58091;SDS011;43896;48.178;11.578;2023-12-22T13:36:22;2.85;;;0.65;;
58091;SDS011;43896;48.178;11.578;2023-12-22T13:38:48;2.33;;;0.60;;
58091;SDS011;43896;48.178;11.578;2023-12-22T13:41:14;2.78;;;0.60;;
58091;SDS011;43896;48.178;11.578;2023-12-22T13:43:41;2.53;;;0.70;;
58091;SDS011;43896;48.178;11.578;2023-12-22T13:46:09;2.17;;;0.50;;
58091;SDS011;43896;48.178;11.578;2023-12-22T13:48:41;2.60;;;0.60;;
58091;SDS011;43896;48.178;11.578;2023-12-22T13:51:07;3.03;;;0.80;;
58091;SDS011;43896;48.178;11.578;2023-12-22T13:53:32;4.32;;;0.63;;
58091;SDS011;43896;48.178;11.578;2023-12-22T13:55:58;5.47;;;0.93;;
58091;SDS011;43896;48.178;11.578;2023-12-22T13:58:24;2.60;;;0.60;;
58091;SDS011;43896;48.178;11.578;2023-12-22T14:00:50;2.03;;;0.60;;
58091;SDS011;43896;48.178;11.578;2023-12-22T14:03:16;2.05;;;0.60;;
58091;SDS011;43896;48.178;11.578;2023-12-22T14:05:43;3.45;;;0.60;;
58091;SDS011;43896;48.178;11.578;2023-12-22T14:08:09;3.03;;;0.57;;
58091;SDS011;43896;48.178;11.578;2023-12-22T14:10:34;3.33;;;0.60;;
58091;SDS011;43896;48.178;11.578;2023-12-22T14:13:00;3.65;;;0.60;;
58091;SDS011;43896;48.178;11.578;2023-12-22T14:15:25;3.40;;;0.75;;
58091;SDS011;43896;48.178;11.578;2023-12-22T14:17:54;3.95;;;0.68;;
58091;SDS011;43896;48.178;11.578;2023-12-22T14:20:20;3.78;;;0.70;;
58091;SDS011;43896;48.178;11.578;2023-12-22T14:22:46;2.58;;;0.60;;
58091;SDS011;43896;48.178;11.578;2023-12-22T14:25:11;1.27;;;0.50;;
58091;SDS011;43896;48.178;11.578;2023-12-22T14:27:37;2.28;;;0.50;;
58091;SDS011;43896;48.178;11.578;2023-12-22T14:30:02;1.85;;;0.50;;
58091;SDS011;43896;48.178;11.578;2023-12-22T14:32:28;1.75;;;0.65;;
58091;SDS011;43896;48.178;11.578;2023-12-22T14:34:54;3.55;;;0.60;;
58091;SDS011;43896;48.178;11.578;2023-12-22T14:37:20;2.20;;;0.70;;
58091;SDS011;43896;48.178;11.578;2023-12-22T14:39:46;2.15;;;0.60;;